sensor_id;sensor_type;location;lat;lon;timestamp;pressure;altitude;pressure_sealevel;temperature;humidity
20624;BME280;10471;42.736;23.346;2023-03-23T00:00:58;95530.25;;;5.45;100.00
20624;BME280;10471;42.736;23.346;2023-03-23T00:03:23;95527.38;;;5.47;100.00
20624;BME280;10471;42.736;23.346;2023-03-23T00:05:51;95526.28;;;5.43;100.00
20624;BME280;10471;42.736;23.346;2023-03-23T00:08:18;95536.75;;;5.43;100.00
20624;BME280;10471;42.736;23.346;2023-03-23T00:10:50;95540.06;;;5.38;100.00
20624;BME280;10471;42.736;23.346;2023-03-23T00:13:23;95534.31;;;5.36;100.00
20624;BME280;10471;42.736;23.346;2023-03-23T00:15:49;95532.16;;;5.33;100.00
20624;BME280;10471;42.736;23.346;2023-03-23T00:18:18;95533.25;;;5.37;100.00
20624;BME280;10471;42.736;23.346;2023-03-23T00:20:46;95532.97;;;5.34;100.00
20624;BME280;10471;42.736;23.346;2023-03-23T00:23:20;95542.34;;;5.35;100.00
20624;BME280;10471;42.736;23.346;2023-03-23T00:25:50;95538.63;;;5.31;100.00
20624;BME280;10471;42.736;23.346;2023-03-23T00:28:16;95544.34;;;5.28;100.00
20624;BME280;10471;42.736;23.346;2023-03-23T00:30:42;95554.16;;;5.21;100.00
20624;BME280;10471;42.736;23.346;2023-03-23T00:33:10;95552.03;;;5.18;100.00
20624;BME280;10471;42.736;23.346;2023-03-23T00:35:39;95563.19;;;5.14;100.00
20624;BME280;10471;42.736;23.346;2023-03-23T00:38:05;95554.94;;;5.05;100.00
20624;BME280;10471;42.736;23.346;2023-03-23T00:40:30;95556.28;;;5.08;100.00
20624;BME280;10471;42.736;23.346;2023-03-23T00:42:56;95551.63;;;5.10;100.00
20624;BME280;10471;42.736;23.346;2023-03-23T00:45:22;95557.94;;;5.14;100.00
20624;BME280;10471;42.736;23.346;2023-03-23T00:47:49;95558.13;;;5.07;100.00
20624;BME280;10471;42.736;23.346;2023-03-23T00:50:16;95561.41;;;5.03;100.00
20624;BME280;10471;42.736;23.346;2023-03-23T00:52:43;95559.41;;;4.93;100.00
20624;BME280;10471;42.736;23.346;2023-03-23T00:55:08;95565.81;;;4.86;100.00
20624;BME280;10471;42.736;23.346;2023-03-23T00:57:34;95571.88;;;4.75;100.00
20624;BME280;10471;42.736;23.346;2023-03-23T01:00:00;95565.38;;;4.61;100.00
20624;BME280;10471;42.736;23.346;2023-03-23T01:02:25;95564.91;;;4.36;100.00
20624;BME280;10471;42.736;23.346;2023-03-23T01:04:51;95568.34;;;4.25;100.00
20624;BME280;10471;42.736;23.346;2023-03-23T01:07:19;95559.94;;;4.23;100.00
20624;BME280;10471;42.736;23.346;2023-03-23T01:09:46;95558.63;;;4.09;100.00
20624;BME280;10471;42.736;23.346;2023-03-23T01:12:12;95552.63;;;3.97;100.00
20624;BME280;10471;42.736;23.346;2023-03-23T01:14:37;95566.81;;;4.01;100.00
20624;BME280;10471;42.736;23.346;2023-03-23T01:17:03;95555.44;;;4.07;100.00
20624;BME280;10471;42.736;23.346;2023-03-23T01:19:28;95556.34;;;4.13;100.00
20624;BME280;10471;42.736;23.346;2023-03-23T01:21:54;95548.28;;;4.14;100.00
20624;BME280;10471;42.736;23.346;2023-03-23T01:24:19;95546.81;;;4.18;100.00
20624;BME280;10471;42.736;23.346;2023-03-23T01:26:45;95544.78;;;4.20;100.00
20624;BME280;10471;42.736;23.346;2023-03-23T01:29:11;95548.97;;;4.21;100.00
20624;BME280;10471;42.736;23.346;2023-03-23T01:31:36;95539.06;;;4.23;100.00
20624;BME280;10471;42.736;23.346;2023-03-23T01:34:02;95527.88;;;4.23;100.00
20624;BME280;10471;42.736;23.346;2023-03-23T01:36:30;95542.72;;;4.22;100.00
20624;BME280;10471;42.736;23.346;2023-03-23T01:38:59;95532.31;;;4.22;100.00
20624;BME280;10471;42.736;23.346;2023-03-23T01:41:26;95539.06;;;4.23;100.00
20624;BME280;10471;42.736;23.346;2023-03-23T01:46:33;95528.84;;;4.33;100.00
20624;BME280;10471;42.736;23.346;2023-03-23T01:49:06;95542.44;;;4.35;100.00
20624;BME280;10471;42.736;23.346;2023-03-23T01:51:36;95545.63;;;4.37;100.00
20624;BME280;10471;42.736;23.346;2023-03-23T01:54:04;95550.03;;;4.37;100.00
20624;BME280;10471;42.736;23.346;2023-03-23T01:56:36;95543.56;;;4.39;100.00
20624;BME280;10471;42.736;23.346;2023-03-23T01:59:06;95531.88;;;4.42;100.00
20624;BME280;10471;42.736;23.346;2023-03-23T02:01:32;95537.41;;;4.45;100.00
20624;BME280;10471;42.736;23.346;2023-03-23T02:04:03;95539.78;;;4.47;100.00
20624;BME280;10471;42.736;23.346;2023-03-23T02:06:29;95551.31;;;4.62;100.00
20624;BME280;10471;42.736;23.346;2023-03-23T02:08:55;95541.44;;;4.64;100.00
20624;BME280;10471;42.736;23.346;2023-03-23T02:11:21;95548.22;;;4.65;100.00
20624;BME280;10471;42.736;23.346;2023-03-23T02:13:48;95543.00;;;4.65;100.00
20624;BME280;10471;42.736;23.346;2023-03-23T02:18:59;95541.88;;;4.61;100.00
20624;BME280;10471;42.736;23.346;2023-03-23T02:24:42;95534.53;;;4.58;100.00
20624;BME280;10471;42.736;23.346;2023-03-23T02:27:17;95534.63;;;4.63;100.00
20624;BME280;10471;42.736;23.346;2023-03-23T02:32:16;95532.38;;;4.55;100.00
20624;BME280;10471;42.736;23.346;2023-03-23T02:34:49;95536.34;;;4.57;100.00
20624;BME280;10471;42.736;23.346;2023-03-23T02:37:24;95541.81;;;4.56;100.00
20624;BME280;10471;42.736;23.346;2023-03-23T02:39:57;95538.94;;;4.57;100.00
20624;BME280;10471;42.736;23.346;2023-03-23T02:42:27;95553.25;;;4.55;100.00
20624;BME280;10471;42.736;23.346;2023-03-23T02:44:55;95553.72;;;4.52;100.00
20624;BME280;10471;42.736;23.346;2023-03-23T02:47:25;95549.44;;;4.46;100.00
20624;BME280;10471;42.736;23.346;2023-03-23T02:49:55;95558.66;;;4.37;100.00
20624;BME280;10471;42.736;23.346;2023-03-23T02:52:25;95561.09;;;4.27;100.00
20624;BME280;10471;42.736;23.346;2023-03-23T02:54:53;95560.34;;;4.04;100.00
20624;BME280;10471;42.736;23.346;2023-03-23T02:57:20;95559.34;;;3.93;100.00
20624;BME280;10471;42.736;23.346;2023-03-23T02:59:46;95555.50;;;3.85;100.00
20624;BME280;10471;42.736;23.346;2023-03-23T03:02:21;95556.63;;;3.66;100.00
20624;BME280;10471;42.736;23.346;2023-03-23T03:04:58;95564.59;;;3.48;100.00
20624;BME280;10471;42.736;23.346;2023-03-23T03:07:43;95562.75;;;3.25;100.00
20624;BME280;10471;42.736;23.346;2023-03-23T03:13:17;95574.41;;;3.23;100.00
20624;BME280;10471;42.736;23.346;2023-03-23T03:15:58;95583.69;;;3.19;100.00
20624;BME280;10471;42.736;23.346;2023-03-23T03:18:29;95587.19;;;3.13;100.00
20624;BME280;10471;42.736;23.346;2023-03-23T03:21:02;95599.75;;;3.16;100.00
20624;BME280;10471;42.736;23.346;2023-03-23T03:23:30;95597.84;;;3.23;100.00
20624;BME280;10471;42.736;23.346;2023-03-23T03:25:57;95597.38;;;3.26;100.00
20624;BME280;10471;42.736;23.346;2023-03-23T03:28:24;95597.63;;;3.24;100.00
20624;BME280;10471;42.736;23.346;2023-03-23T03:30:56;95594.78;;;3.26;100.00
20624;BME280;10471;42.736;23.346;2023-03-23T03:33:26;95587.44;;;3.23;100.00
20624;BME280;10471;42.736;23.346;2023-03-23T03:35:57;95591.28;;;3.21;100.00
20624;BME280;10471;42.736;23.346;2023-03-23T03:38:24;95597.84;;;3.23;100.00
20624;BME280;10471;42.736;23.346;2023-03-23T03:40:49;95600.22;;;3.24;100.00
20624;BME280;10471;42.736;23.346;2023-03-23T03:43:15;95596.16;;;3.28;100.00
20624;BME280;10471;42.736;23.346;2023-03-23T03:45:40;95598.53;;;3.30;100.00
20624;BME280;10471;42.736;23.346;2023-03-23T03:48:07;95601.81;;;3.25;100.00
20624;BME280;10471;42.736;23.346;2023-03-23T03:50:33;95600.56;;;3.28;100.00
20624;BME280;10471;42.736;23.346;2023-03-23T03:52:58;95600.56;;;3.28;100.00
20624;BME280;10471;42.736;23.346;2023-03-23T03:55:24;95599.88;;;3.21;100.00
20624;BME280;10471;42.736;23.346;2023-03-23T03:57:49;95599.75;;;3.27;100.00
20624;BME280;10471;42.736;23.346;2023-03-23T04:00:15;95589.34;;;3.27;100.00
20624;BME280;10471;42.736;23.346;2023-03-23T04:02:45;95577.03;;;3.34;100.00
20624;BME280;10471;42.736;23.346;2023-03-23T04:05:16;95586.97;;;3.37;100.00
20624;BME280;10471;42.736;23.346;2023-03-23T04:07:43;95580.75;;;3.38;100.00
20624;BME280;10471;42.736;23.346;2023-03-23T04:10:10;95583.13;;;3.40;100.00
20624;BME280;10471;42.736;23.346;2023-03-23T04:12:36;95583.81;;;3.47;100.00
20624;BME280;10471;42.736;23.346;2023-03-23T04:15:02;95585.31;;;3.43;100.00
20624;BME280;10471;42.736;23.346;2023-03-23T04:17:28;95587.09;;;3.42;100.00
20624;BME280;10471;42.736;23.346;2023-03-23T04:19:54;95601.16;;;3.41;100.00
20624;BME280;10471;42.736;23.346;2023-03-23T04:22:25;95591.19;;;3.38;100.00
20624;BME280;10471;42.736;23.346;2023-03-23T04:24:58;95587.09;;;3.42;100.00
20624;BME280;10471;42.736;23.346;2023-03-23T04:27:26;95594.25;;;3.47;100.00
20624;BME280;10471;42.736;23.346;2023-03-23T04:29:56;95596.53;;;3.55;100.00
20624;BME280;10471;42.736;23.346;2023-03-23T04:32:23;95595.81;;;3.59;100.00
20624;BME280;10471;42.736;23.346;2023-03-23T04:34:50;95591.19;;;3.61;100.00
20624;BME280;10471;42.736;23.346;2023-03-23T04:37:15;95593.69;;;3.68;100.00
20624;BME280;10471;42.736;23.346;2023-03-23T04:39:41;95587.00;;;3.72;100.00
20624;BME280;10471;42.736;23.346;2023-03-23T04:42:10;95588.16;;;3.76;100.00
20624;BME280;10471;42.736;23.346;2023-03-23T04:44:36;95594.13;;;3.88;100.00
20624;BME280;10471;42.736;23.346;2023-03-23T04:47:01;95593.56;;;3.97;100.00
20624;BME280;10471;42.736;23.346;2023-03-23T04:49:27;95602.25;;;4.02;100.00
20624;BME280;10471;42.736;23.346;2023-03-23T04:51:55;95602.84;;;4.04;100.00
20624;BME280;10471;42.736;23.346;2023-03-23T04:54:21;95600.56;;;4.08;100.00
20624;BME280;10471;42.736;23.346;2023-03-23T04:56:47;95600.66;;;4.13;100.00
20624;BME280;10471;42.736;23.346;2023-03-23T04:59:12;95601.94;;;4.10;100.00
20624;BME280;10471;42.736;23.346;2023-03-23T05:01:39;95605.31;;;4.22;100.00
20624;BME280;10471;42.736;23.346;2023-03-23T05:04:05;95606.97;;;4.28;100.00
20624;BME280;10471;42.736;23.346;2023-03-23T05:06:31;95616.66;;;4.16;100.00
20624;BME280;10471;42.736;23.346;2023-03-23T05:08:56;95615.84;;;4.27;100.00
20624;BME280;10471;42.736;23.346;2023-03-23T05:11:21;95608.13;;;4.21;100.00
20624;BME280;10471;42.736;23.346;2023-03-23T05:13:47;95624.78;;;4.31;100.00
20624;BME280;10471;42.736;23.346;2023-03-23T05:16:12;95614.81;;;4.17;100.00
20624;BME280;10471;42.736;23.346;2023-03-23T05:18:38;95630.91;;;4.25;100.00
20624;BME280;10471;42.736;23.346;2023-03-23T05:21:04;95623.56;;;4.22;100.00
20624;BME280;10471;42.736;23.346;2023-03-23T05:23:29;95625.03;;;4.18;100.00
20624;BME280;10471;42.736;23.346;2023-03-23T05:25:57;95635.56;;;4.23;100.00
20624;BME280;10471;42.736;23.346;2023-03-23T05:28:28;95626.84;;;4.18;100.00
20624;BME280;10471;42.736;23.346;2023-03-23T05:30:55;95631.81;;;4.19;100.00
20624;BME280;10471;42.736;23.346;2023-03-23T05:33:21;95633.22;;;4.10;100.00
20624;BME280;10471;42.736;23.346;2023-03-23T05:35:47;95637.25;;;4.29;100.00
20624;BME280;10471;42.736;23.346;2023-03-23T05:38:13;95629.72;;;4.44;100.00
20624;BME280;10471;42.736;23.346;2023-03-23T05:40:40;95641.97;;;4.55;100.00
20624;BME280;10471;42.736;23.346;2023-03-23T05:43:07;95634.69;;;4.57;100.00
20624;BME280;10471;42.736;23.346;2023-03-23T05:45:33;95634.41;;;4.70;100.00
20624;BME280;10471;42.736;23.346;2023-03-23T05:47:59;95636.00;;;4.71;100.00
20624;BME280;10471;42.736;23.346;2023-03-23T05:50:24;95646.41;;;4.82;100.00
20624;BME280;10471;42.736;23.346;2023-03-23T05:52:50;95646.91;;;4.96;100.00
20624;BME280;10471;42.736;23.346;2023-03-23T05:55:16;95648.47;;;5.08;100.00
20624;BME280;10471;42.736;23.346;2023-03-23T05:57:41;95659.22;;;5.12;100.00
20624;BME280;10471;42.736;23.346;2023-03-23T06:00:07;95652.22;;;5.01;100.00
20624;BME280;10471;42.736;23.346;2023-03-23T06:02:39;95656.00;;;4.93;100.00
20624;BME280;10471;42.736;23.346;2023-03-23T06:05:05;95658.22;;;5.13;100.00
20624;BME280;10471;42.736;23.346;2023-03-23T06:07:32;95655.41;;;5.03;100.00
20624;BME280;10471;42.736;23.346;2023-03-23T06:09:57;95663.34;;;5.08;100.00
20624;BME280;10471;42.736;23.346;2023-03-23T06:12:22;95662.91;;;5.11;100.00
20624;BME280;10471;42.736;23.346;2023-03-23T06:14:49;95666.53;;;5.10;100.00
20624;BME280;10471;42.736;23.346;2023-03-23T06:17:15;95653.97;;;4.95;100.00
20624;BME280;10471;42.736;23.346;2023-03-23T06:19:42;95659.72;;;5.09;100.00
20624;BME280;10471;42.736;23.346;2023-03-23T06:22:09;95661.47;;;5.19;100.00
20624;BME280;10471;42.736;23.346;2023-03-23T06:24:34;95658.03;;;5.30;100.00
20624;BME280;10471;42.736;23.346;2023-03-23T06:27:00;95663.69;;;5.27;100.00
20624;BME280;10471;42.736;23.346;2023-03-23T06:29:26;95658.97;;;5.41;100.00
20624;BME280;10471;42.736;23.346;2023-03-23T06:31:57;95663.16;;;5.25;100.00
20624;BME280;10471;42.736;23.346;2023-03-23T06:34:24;95661.50;;;5.52;100.00
20624;BME280;10471;42.736;23.346;2023-03-23T06:36:49;95656.63;;;5.72;100.00
20624;BME280;10471;42.736;23.346;2023-03-23T06:39:15;95662.97;;;5.92;100.00
20624;BME280;10471;42.736;23.346;2023-03-23T06:41:40;95659.88;;;6.12;100.00
20624;BME280;10471;42.736;23.346;2023-03-23T06:44:07;95662.16;;;6.08;100.00
20624;BME280;10471;42.736;23.346;2023-03-23T06:46:33;95665.34;;;5.94;100.00
20624;BME280;10471;42.736;23.346;2023-03-23T06:48:58;95667.88;;;6.22;100.00
20624;BME280;10471;42.736;23.346;2023-03-23T06:51:24;95664.44;;;6.38;100.00
20624;BME280;10471;42.736;23.346;2023-03-23T06:53:50;95669.91;;;6.57;100.00
20624;BME280;10471;42.736;23.346;2023-03-23T06:56:16;95665.44;;;6.74;100.00
20624;BME280;10471;42.736;23.346;2023-03-23T06:58:41;95672.06;;;6.82;100.00
20624;BME280;10471;42.736;23.346;2023-03-23T07:01:08;95676.19;;;6.99;100.00
20624;BME280;10471;42.736;23.346;2023-03-23T07:03:35;95673.78;;;7.19;100.00
20624;BME280;10471;42.736;23.346;2023-03-23T07:06:02;95676.72;;;7.22;100.00
20624;BME280;10471;42.736;23.346;2023-03-23T07:08:28;95672.66;;;7.36;100.00
20624;BME280;10471;42.736;23.346;2023-03-23T07:10:54;95670.72;;;7.53;100.00
20624;BME280;10471;42.736;23.346;2023-03-23T07:13:20;95672.44;;;7.69;100.00
20624;BME280;10471;42.736;23.346;2023-03-23T07:15:46;95672.56;;;7.84;100.00
20624;BME280;10471;42.736;23.346;2023-03-23T07:18:13;95670.78;;;7.89;100.00
20624;BME280;10471;42.736;23.346;2023-03-23T07:20:38;95679.50;;;8.00;100.00
20624;BME280;10471;42.736;23.346;2023-03-23T07:23:04;95687.75;;;8.13;100.00
20624;BME280;10471;42.736;23.346;2023-03-23T07:25:33;95679.97;;;8.23;100.00
20624;BME280;10471;42.736;23.346;2023-03-23T07:28:02;95684.50;;;8.33;100.00
20624;BME280;10471;42.736;23.346;2023-03-23T07:30:29;95689.56;;;8.44;100.00
20624;BME280;10471;42.736;23.346;2023-03-23T07:32:56;95683.91;;;8.62;100.00
20624;BME280;10471;42.736;23.346;2023-03-23T07:35:23;95678.75;;;8.82;100.00
20624;BME280;10471;42.736;23.346;2023-03-23T07:37:49;95684.09;;;9.02;100.00
20624;BME280;10471;42.736;23.346;2023-03-23T07:40:15;95688.06;;;9.09;100.00
20624;BME280;10471;42.736;23.346;2023-03-23T07:42:42;95689.97;;;9.28;100.00
20624;BME280;10471;42.736;23.346;2023-03-23T07:45:10;95694.22;;;9.44;100.00
20624;BME280;10471;42.736;23.346;2023-03-23T07:47:36;95696.34;;;9.62;100.00
20624;BME280;10471;42.736;23.346;2023-03-23T07:50:02;95703.22;;;9.78;100.00
20624;BME280;10471;42.736;23.346;2023-03-23T07:52:27;95696.91;;;9.94;100.00
20624;BME280;10471;42.736;23.346;2023-03-23T07:54:53;95701.69;;;10.07;100.00
20624;BME280;10471;42.736;23.346;2023-03-23T07:57:18;95693.78;;;10.22;100.00
20624;BME280;10471;42.736;23.346;2023-03-23T07:59:44;95690.09;;;10.38;100.00
20624;BME280;10471;42.736;23.346;2023-03-23T08:02:09;95683.75;;;10.53;100.00
20624;BME280;10471;42.736;23.346;2023-03-23T08:04:35;95685.31;;;10.64;100.00
20624;BME280;10471;42.736;23.346;2023-03-23T08:07:03;95688.97;;;10.73;100.00
20624;BME280;10471;42.736;23.346;2023-03-23T08:09:29;95695.50;;;10.91;100.00
20624;BME280;10471;42.736;23.346;2023-03-23T08:11:55;95692.81;;;11.06;100.00
20624;BME280;10471;42.736;23.346;2023-03-23T08:14:21;95693.63;;;11.06;100.00
20624;BME280;10471;42.736;23.346;2023-03-23T08:16:47;95691.44;;;11.18;100.00
20624;BME280;10471;42.736;23.346;2023-03-23T08:19:13;95698.28;;;11.19;100.00
20624;BME280;10471;42.736;23.346;2023-03-23T08:21:39;95691.16;;;11.24;100.00
20624;BME280;10471;42.736;23.346;2023-03-23T08:24:04;95693.97;;;11.43;100.00
20624;BME280;10471;42.736;23.346;2023-03-23T08:26:30;95691.81;;;11.55;100.00
20624;BME280;10471;42.736;23.346;2023-03-23T08:28:56;95694.94;;;11.62;100.00
20624;BME280;10471;42.736;23.346;2023-03-23T08:31:22;95694.56;;;11.78;100.00
20624;BME280;10471;42.736;23.346;2023-03-23T08:33:48;95693.13;;;11.95;100.00
20624;BME280;10471;42.736;23.346;2023-03-23T08:36:14;95693.84;;;12.06;100.00
20624;BME280;10471;42.736;23.346;2023-03-23T08:38:39;95686.13;;;12.14;100.00
20624;BME280;10471;42.736;23.346;2023-03-23T08:41:05;95686.03;;;12.24;100.00
20624;BME280;10471;42.736;23.346;2023-03-23T08:43:32;95685.19;;;12.34;100.00
20624;BME280;10471;42.736;23.346;2023-03-23T08:45:58;95690.09;;;12.45;100.00
20624;BME280;10471;42.736;23.346;2023-03-23T08:48:24;95674.13;;;12.55;100.00
20624;BME280;10471;42.736;23.346;2023-03-23T08:50:50;95678.25;;;12.66;100.00
20624;BME280;10471;42.736;23.346;2023-03-23T08:53:17;95680.22;;;12.79;100.00
20624;BME280;10471;42.736;23.346;2023-03-23T08:55:43;95684.59;;;12.93;100.00
20624;BME280;10471;42.736;23.346;2023-03-23T08:58:09;95682.66;;;13.04;100.00
20624;BME280;10471;42.736;23.346;2023-03-23T09:00:35;95684.66;;;13.11;100.00
20624;BME280;10471;42.736;23.346;2023-03-23T09:03:00;95682.16;;;13.20;100.00
20624;BME280;10471;42.736;23.346;2023-03-23T09:05:28;95678.63;;;13.29;100.00
20624;BME280;10471;42.736;23.346;2023-03-23T09:07:56;95686.16;;;13.41;100.00
20624;BME280;10471;42.736;23.346;2023-03-23T09:10:25;95680.06;;;13.40;100.00
20624;BME280;10471;42.736;23.346;2023-03-23T09:12:52;95682.28;;;13.52;100.00
20624;BME280;10471;42.736;23.346;2023-03-23T09:15:18;95684.59;;;13.58;100.00
20624;BME280;10471;42.736;23.346;2023-03-23T09:17:46;95676.13;;;13.74;100.00
20624;BME280;10471;42.736;23.346;2023-03-23T09:20:15;95674.50;;;13.97;100.00
20624;BME280;10471;42.736;23.346;2023-03-23T09:22:44;95683.06;;;13.89;100.00
20624;BME280;10471;42.736;23.346;2023-03-23T09:25:13;95683.91;;;14.03;100.00
20624;BME280;10471;42.736;23.346;2023-03-23T09:27:42;95677.94;;;14.16;100.00
20624;BME280;10471;42.736;23.346;2023-03-23T09:30:11;95674.59;;;14.24;100.00
20624;BME280;10471;42.736;23.346;2023-03-23T09:32:38;95674.47;;;14.34;97.17
20624;BME280;10471;42.736;23.346;2023-03-23T09:35:06;95670.53;;;14.44;100.00
20624;BME280;10471;42.736;23.346;2023-03-23T09:37:34;95663.88;;;14.34;93.84
20624;BME280;10471;42.736;23.346;2023-03-23T09:40:02;95660.75;;;14.45;95.84
20624;BME280;10471;42.736;23.346;2023-03-23T09:45:15;95654.53;;;14.49;98.20
20624;BME280;10471;42.736;23.346;2023-03-23T09:50:35;95660.78;;;14.58;89.00
20624;BME280;10471;42.736;23.346;2023-03-23T09:53:13;95649.00;;;14.64;86.17
20624;BME280;10471;42.736;23.346;2023-03-23T09:55:41;95650.19;;;14.72;89.04
20624;BME280;10471;42.736;23.346;2023-03-23T10:01:02;95653.88;;;14.57;82.47
20624;BME280;10471;42.736;23.346;2023-03-23T10:03:40;95652.91;;;14.53;83.47
20624;BME280;10471;42.736;23.346;2023-03-23T10:06:10;95646.69;;;14.58;81.86
20624;BME280;10471;42.736;23.346;2023-03-23T10:08:39;95642.00;;;14.68;82.81
20624;BME280;10471;42.736;23.346;2023-03-23T10:16:48;95643.31;;;15.11;81.53
20624;BME280;10471;42.736;23.346;2023-03-23T10:19:20;95638.59;;;15.35;76.61
20624;BME280;10471;42.736;23.346;2023-03-23T10:21:52;95640.53;;;15.43;72.46
20624;BME280;10471;42.736;23.346;2023-03-23T10:24:26;95634.03;;;15.35;71.51
20624;BME280;10471;42.736;23.346;2023-03-23T10:27:19;95635.97;;;15.57;79.77
20624;BME280;10471;42.736;23.346;2023-03-23T10:29:49;95636.44;;;15.59;74.79
20624;BME280;10471;42.736;23.346;2023-03-23T10:32:44;95629.13;;;15.77;78.89
20624;BME280;10471;42.736;23.346;2023-03-23T10:35:15;95631.94;;;15.94;72.73
20624;BME280;10471;42.736;23.346;2023-03-23T10:37:52;95633.63;;;16.12;70.67
20624;BME280;10471;42.736;23.346;2023-03-23T10:40:23;95636.53;;;16.24;67.76
20624;BME280;10471;42.736;23.346;2023-03-23T10:42:50;95632.59;;;16.22;62.85
20624;BME280;10471;42.736;23.346;2023-03-23T10:45:26;95625.03;;;15.93;66.95
20624;BME280;10471;42.736;23.346;2023-03-23T10:47:56;95632.41;;;15.96;71.01
20624;BME280;10471;42.736;23.346;2023-03-23T10:50:27;95628.47;;;16.16;72.38
20624;BME280;10471;42.736;23.346;2023-03-23T10:52:57;95620.56;;;16.46;72.41
20624;BME280;10471;42.736;23.346;2023-03-23T10:55:24;95627.38;;;16.30;59.91
20624;BME280;10471;42.736;23.346;2023-03-23T10:58:26;95625.06;;;16.24;63.43
20624;BME280;10471;42.736;23.346;2023-03-23T11:00:55;95610.50;;;16.21;62.01
20624;BME280;10471;42.736;23.346;2023-03-23T11:03:26;95617.41;;;16.22;64.60
20624;BME280;10471;42.736;23.346;2023-03-23T11:05:57;95610.00;;;16.33;61.91
20624;BME280;10471;42.736;23.346;2023-03-23T11:08:29;95616.78;;;16.47;63.72
20624;BME280;10471;42.736;23.346;2023-03-23T11:13:39;95609.47;;;16.91;61.77
20624;BME280;10471;42.736;23.346;2023-03-23T11:16:05;95599.66;;;17.08;61.71
20624;BME280;10471;42.736;23.346;2023-03-23T11:18:41;95591.13;;;17.28;58.43
20624;BME280;10471;42.736;23.346;2023-03-23T11:21:09;95595.22;;;17.43;55.04
20624;BME280;10471;42.736;23.346;2023-03-23T11:23:38;95590.56;;;17.65;56.79
20624;BME280;10471;42.736;23.346;2023-03-23T11:29:17;95583.19;;;17.79;56.75
20624;BME280;10471;42.736;23.346;2023-03-23T11:34:15;95582.22;;;17.92;54.66
20624;BME280;10471;42.736;23.346;2023-03-23T11:36:53;95574.84;;;17.97;51.62
20624;BME280;10471;42.736;23.346;2023-03-23T11:39:25;95573.41;;;18.17;50.70
20624;BME280;10471;42.736;23.346;2023-03-23T11:41:52;95577.50;;;18.23;55.18
20624;BME280;10471;42.736;23.346;2023-03-23T11:44:17;95565.81;;;18.52;54.48
20624;BME280;10471;42.736;23.346;2023-03-23T11:49:41;95571.50;;;18.42;51.89
20624;BME280;10471;42.736;23.346;2023-03-23T11:52:23;95561.56;;;18.51;51.57
20624;BME280;10471;42.736;23.346;2023-03-23T11:54:57;95557.97;;;18.47;51.72
20624;BME280;10471;42.736;23.346;2023-03-23T11:57:27;95560.31;;;18.49;50.93
20624;BME280;10471;42.736;23.346;2023-03-23T11:59:55;95555.31;;;18.47;50.62
20624;BME280;10471;42.736;23.346;2023-03-23T12:02:56;95549.59;;;18.66;50.29
20624;BME280;10471;42.736;23.346;2023-03-23T12:05:31;95549.25;;;18.96;50.26
20624;BME280;10471;42.736;23.346;2023-03-23T12:08:03;95554.69;;;19.37;49.26
20624;BME280;10471;42.736;23.346;2023-03-23T12:10:49;95545.84;;;19.45;46.27
20624;BME280;10471;42.736;23.346;2023-03-23T12:44:47;95515.75;;;19.88;46.62
20624;BME280;10471;42.736;23.346;2023-03-23T12:47:24;95514.28;;;19.59;46.15
20624;BME280;10471;42.736;23.346;2023-03-23T12:50:10;95511.34;;;19.52;47.87
20624;BME280;10471;42.736;23.346;2023-03-23T12:55:51;95521.09;;;19.88;46.41
20624;BME280;10471;42.736;23.346;2023-03-23T12:58:13;95504.47;;;20.15;43.83
20624;BME280;10471;42.736;23.346;2023-03-23T13:03:27;95504.03;;;20.13;45.81
20624;BME280;10471;42.736;23.346;2023-03-23T13:06:12;95504.81;;;20.14;47.21
20624;BME280;10471;42.736;23.346;2023-03-23T13:08:48;95504.47;;;20.15;45.44
20624;BME280;10471;42.736;23.346;2023-03-23T13:11:21;95506.06;;;20.28;46.09
20624;BME280;10471;42.736;23.346;2023-03-23T13:13:51;95502.88;;;20.46;44.62
20624;BME280;10471;42.736;23.346;2023-03-23T13:19:08;95493.31;;;20.13;45.46
20624;BME280;10471;42.736;23.346;2023-03-23T13:21:57;95491.91;;;20.40;45.62
20624;BME280;10471;42.736;23.346;2023-03-23T13:24:28;95488.22;;;20.32;43.98
20624;BME280;10471;42.736;23.346;2023-03-23T13:26:55;95484.22;;;20.38;44.34
20624;BME280;10471;42.736;23.346;2023-03-23T13:29:26;95479.66;;;20.50;44.66
20624;BME280;10471;42.736;23.346;2023-03-23T13:32:10;95486.69;;;20.43;45.17
20624;BME280;10471;42.736;23.346;2023-03-23T13:34:36;95493.34;;;20.37;45.24
20624;BME280;10471;42.736;23.346;2023-03-23T13:37:04;95484.91;;;20.35;44.98
20624;BME280;10471;42.736;23.346;2023-03-23T13:39:56;95479.88;;;20.45;44.40
20624;BME280;10471;42.736;23.346;2023-03-23T13:42:25;95478.97;;;20.42;44.39
20624;BME280;10471;42.736;23.346;2023-03-23T13:54:48;95475.94;;;21.14;43.88
20624;BME280;10471;42.736;23.346;2023-03-23T13:57:53;95483.66;;;21.16;43.00
20624;BME280;10471;42.736;23.346;2023-03-23T14:05:37;95466.63;;;20.85;44.86
20624;BME280;10471;42.736;23.346;2023-03-23T14:13:03;95467.00;;;20.03;44.45
20624;BME280;10471;42.736;23.346;2023-03-23T14:15:30;95460.97;;;19.86;45.53
20624;BME280;10471;42.736;23.346;2023-03-23T14:17:56;95455.06;;;20.13;45.00
20624;BME280;10471;42.736;23.346;2023-03-23T14:20:30;95454.97;;;20.57;44.73
20624;BME280;10471;42.736;23.346;2023-03-23T14:22:58;95452.53;;;20.64;43.62
20624;BME280;10471;42.736;23.346;2023-03-23T14:25:27;95459.38;;;20.73;42.75
20624;BME280;10471;42.736;23.346;2023-03-23T14:27:54;95454.75;;;20.38;44.65
20624;BME280;10471;42.736;23.346;2023-03-23T14:30:22;95456.13;;;20.44;45.03
20624;BME280;10471;42.736;23.346;2023-03-23T14:32:48;95452.25;;;20.09;46.14
20624;BME280;10471;42.736;23.346;2023-03-23T14:37:46;95461.47;;;20.44;44.83